sensor_id;sensor_type;location;lat;lon;timestamp;temperature;humidity
49503;DHT22;35409;48.776;9.204;2024-03-23T00:53:11;8.40;99.90
49503;DHT22;35409;48.776;9.204;2024-03-23T00:55:36;8.40;99.90
49503;DHT22;35409;48.776;9.204;2024-03-23T00:58:02;8.40;99.90
49503;DHT22;35409;48.776;9.204;2024-03-23T01:00:27;8.50;99.90
49503;DHT22;35409;48.776;9.204;2024-03-23T01:02:53;8.60;99.90
49503;DHT22;35409;48.776;9.204;2024-03-23T01:05:19;8.80;99.90
49503;DHT22;35409;48.776;9.204;2024-03-23T01:07:44;9.10;99.90
49503;DHT22;35409;48.776;9.204;2024-03-23T01:10:10;9.40;99.90
49503;DHT22;35409;48.776;9.204;2024-03-23T01:12:35;9.70;99.90
49503;DHT22;35409;48.776;9.204;2024-03-23T01:15:01;10.00;99.90
49503;DHT22;35409;48.776;9.204;2024-03-23T01:17:27;10.20;99.90
49503;DHT22;35409;48.776;9.204;2024-03-23T01:19:52;10.40;99.90
49503;DHT22;35409;48.776;9.204;2024-03-23T01:22:18;10.70;99.90
49503;DHT22;35409;48.776;9.204;2024-03-23T01:24:43;10.90;99.90
49503;DHT22;35409;48.776;9.204;2024-03-23T01:27:09;11.00;99.90
49503;DHT22;35409;48.776;9.204;2024-03-23T01:29:35;11.20;99.90
49503;DHT22;35409;48.776;9.204;2024-03-23T01:32:00;11.30;99.90
49503;DHT22;35409;48.776;9.204;2024-03-23T01:34:26;11.30;99.90
49503;DHT22;35409;48.776;9.204;2024-03-23T01:36:53;11.50;99.90
49503;DHT22;35409;48.776;9.204;2024-03-23T01:39:18;11.60;99.90
49503;DHT22;35409;48.776;9.204;2024-03-23T01:41:44;11.80;99.90
49503;DHT22;35409;48.776;9.204;2024-03-23T01:44:10;11.90;99.90
49503;DHT22;35409;48.776;9.204;2024-03-23T01:46:37;11.90;99.90
49503;DHT22;35409;48.776;9.204;2024-03-23T01:49:03;12.00;99.90
49503;DHT22;35409;48.776;9.204;2024-03-23T01:51:30;12.10;99.90
49503;DHT22;35409;48.776;9.204;2024-03-23T01:53:56;12.10;99.90
49503;DHT22;35409;48.776;9.204;2024-03-23T01:56:22;12.10;99.90
49503;DHT22;35409;48.776;9.204;2024-03-23T01:58:48;12.10;99.90
49503;DHT22;35409;48.776;9.204;2024-03-23T02:01:14;12.20;99.90
49503;DHT22;35409;48.776;9.204;2024-03-23T02:03:39;12.20;99.90
49503;DHT22;35409;48.776;9.204;2024-03-23T02:06:05;12.10;99.90
49503;DHT22;35409;48.776;9.204;2024-03-23T02:08:33;12.10;99.90
49503;DHT22;35409;48.776;9.204;2024-03-23T02:10:58;12.10;99.90
49503;DHT22;35409;48.776;9.204;2024-03-23T02:13:24;12.10;99.90
49503;DHT22;35409;48.776;9.204;2024-03-23T02:15:50;12.10;99.90
49503;DHT22;35409;48.776;9.204;2024-03-23T02:18:15;12.00;99.90
49503;DHT22;35409;48.776;9.204;2024-03-23T02:20:41;12.10;99.90
49503;DHT22;35409;48.776;9.204;2024-03-23T02:23:16;12.10;99.90
49503;DHT22;35409;48.776;9.204;2024-03-23T02:25:42;12.00;99.90
49503;DHT22;35409;48.776;9.204;2024-03-23T02:28:07;11.90;99.90
49503;DHT22;35409;48.776;9.204;2024-03-23T02:30:33;11.90;99.90
49503;DHT22;35409;48.776;9.204;2024-03-23T02:32:59;11.80;99.90
49503;DHT22;35409;48.776;9.204;2024-03-23T02:35:24;11.80;99.90
49503;DHT22;35409;48.776;9.204;2024-03-23T02:37:50;11.80;99.90
49503;DHT22;35409;48.776;9.204;2024-03-23T02:40:16;11.90;99.90
49503;DHT22;35409;48.776;9.204;2024-03-23T02:42:42;11.90;99.90
49503;DHT22;35409;48.776;9.204;2024-03-23T02:45:08;11.90;99.90
49503;DHT22;35409;48.776;9.204;2024-03-23T02:47:34;11.90;99.90
49503;DHT22;35409;48.776;9.204;2024-03-23T02:50:00;11.80;99.90
49503;DHT22;35409;48.776;9.204;2024-03-23T02:52:25;11.80;99.90
49503;DHT22;35409;48.776;9.204;2024-03-23T02:54:51;11.80;99.90
49503;DHT22;35409;48.776;9.204;2024-03-23T02:57:17;11.70;99.90
49503;DHT22;35409;48.776;9.204;2024-03-23T02:59:42;11.60;99.90
49503;DHT22;35409;48.776;9.204;2024-03-23T03:02:08;11.60;99.90
49503;DHT22;35409;48.776;9.204;2024-03-23T03:04:34;11.70;99.90
49503;DHT22;35409;48.776;9.204;2024-03-23T03:07:00;11.70;99.90
49503;DHT22;35409;48.776;9.204;2024-03-23T03:09:26;11.60;99.90
49503;DHT22;35409;48.776;9.204;2024-03-23T03:11:52;11.60;99.90
49503;DHT22;35409;48.776;9.204;2024-03-23T03:14:17;11.60;99.90
49503;DHT22;35409;48.776;9.204;2024-03-23T03:16:43;11.60;99.90
49503;DHT22;35409;48.776;9.204;2024-03-23T03:19:08;11.60;99.90
49503;DHT22;35409;48.776;9.204;2024-03-23T03:21:36;11.70;99.90
49503;DHT22;35409;48.776;9.204;2024-03-23T03:24:01;11.60;99.90
49503;DHT22;35409;48.776;9.204;2024-03-23T03:26:27;11.60;99.90
49503;DHT22;35409;48.776;9.204;2024-03-23T03:28:53;11.60;99.90
49503;DHT22;35409;48.776;9.204;2024-03-23T03:31:18;11.70;99.90
49503;DHT22;35409;48.776;9.204;2024-03-23T03:33:44;11.70;99.90
49503;DHT22;35409;48.776;9.204;2024-03-23T03:36:10;11.60;99.90
49503;DHT22;35409;48.776;9.204;2024-03-23T03:38:36;11.60;99.90
49503;DHT22;35409;48.776;9.204;2024-03-23T03:41:02;11.60;99.90
49503;DHT22;35409;48.776;9.204;2024-03-23T03:43:28;11.60;99.90
49503;DHT22;35409;48.776;9.204;2024-03-23T03:45:54;11.50;99.90
49503;DHT22;35409;48.776;9.204;2024-03-23T03:48:20;11.50;99.90
49503;DHT22;35409;48.776;9.204;2024-03-23T03:50:45;11.40;99.90
49503;DHT22;35409;48.776;9.204;2024-03-23T03:53:11;11.40;99.90
49503;DHT22;35409;48.776;9.204;2024-03-23T03:55:37;11.30;99.90
49503;DHT22;35409;48.776;9.204;2024-03-23T03:58:03;11.30;99.90
49503;DHT22;35409;48.776;9.204;2024-03-23T04:00:30;11.20;99.90
49503;DHT22;35409;48.776;9.204;2024-03-23T04:02:55;11.10;99.90
49503;DHT22;35409;48.776;9.204;2024-03-23T04:05:21;11.00;99.90
49503;DHT22;35409;48.776;9.204;2024-03-23T04:07:47;10.90;99.90
49503;DHT22;35409;48.776;9.204;2024-03-23T04:10:13;10.90;99.90
49503;DHT22;35409;48.776;9.204;2024-03-23T04:12:39;10.80;99.90
49503;DHT22;35409;48.776;9.204;2024-03-23T04:15:05;10.80;99.90
49503;DHT22;35409;48.776;9.204;2024-03-23T04:17:31;10.70;99.90
49503;DHT22;35409;48.776;9.204;2024-03-23T04:19:58;10.70;99.90
49503;DHT22;35409;48.776;9.204;2024-03-23T04:22:24;10.60;99.90
49503;DHT22;35409;48.776;9.204;2024-03-23T04:24:53;10.70;99.90
49503;DHT22;35409;48.776;9.204;2024-03-23T04:27:19;10.70;99.90
49503;DHT22;35409;48.776;9.204;2024-03-23T04:29:48;10.80;99.90
49503;DHT22;35409;48.776;9.204;2024-03-23T04:32:14;10.80;99.90
49503;DHT22;35409;48.776;9.204;2024-03-23T04:34:40;10.80;99.90
49503;DHT22;35409;48.776;9.204;2024-03-23T04:37:06;10.90;99.90
49503;DHT22;35409;48.776;9.204;2024-03-23T04:39:33;11.10;99.90
49503;DHT22;35409;48.776;9.204;2024-03-23T04:41:58;11.30;99.90
49503;DHT22;35409;48.776;9.204;2024-03-23T04:44:24;11.50;99.90
49503;DHT22;35409;48.776;9.204;2024-03-23T04:46:50;11.40;99.90
49503;DHT22;35409;48.776;9.204;2024-03-23T04:49:16;11.50;99.90
49503;DHT22;35409;48.776;9.204;2024-03-23T04:51:41;11.50;99.90
49503;DHT22;35409;48.776;9.204;2024-03-23T04:54:14;11.40;99.90
49503;DHT22;35409;48.776;9.204;2024-03-23T04:56:40;11.30;99.90
49503;DHT22;35409;48.776;9.204;2024-03-23T04:59:05;11.40;99.90
49503;DHT22;35409;48.776;9.204;2024-03-23T05:01:34;11.30;99.90
49503;DHT22;35409;48.776;9.204;2024-03-23T05:04:00;11.20;99.90
49503;DHT22;35409;48.776;9.204;2024-03-23T05:06:26;11.00;99.90
49503;DHT22;35409;48.776;9.204;2024-03-23T05:08:52;10.70;99.90
49503;DHT22;35409;48.776;9.204;2024-03-23T05:11:18;10.40;99.90
49503;DHT22;35409;48.776;9.204;2024-03-23T05:13:44;10.10;99.90
49503;DHT22;35409;48.776;9.204;2024-03-23T05:16:09;10.00;99.90
49503;DHT22;35409;48.776;9.204;2024-03-23T05:18:35;9.80;99.90
49503;DHT22;35409;48.776;9.204;2024-03-23T05:21:01;9.80;99.90
49503;DHT22;35409;48.776;9.204;2024-03-23T05:23:29;9.60;99.90
49503;DHT22;35409;48.776;9.204;2024-03-23T05:25:55;9.70;99.90
49503;DHT22;35409;48.776;9.204;2024-03-23T05:28:21;9.70;99.90
49503;DHT22;35409;48.776;9.204;2024-03-23T05:30:54;9.60;99.90
49503;DHT22;35409;48.776;9.204;2024-03-23T05:33:20;9.60;99.90
49503;DHT22;35409;48.776;9.204;2024-03-23T05:35:46;9.50;99.90
49503;DHT22;35409;48.776;9.204;2024-03-23T05:38:13;9.40;99.90
49503;DHT22;35409;48.776;9.204;2024-03-23T05:40:39;9.40;99.90
49503;DHT22;35409;48.776;9.204;2024-03-23T05:43:08;9.40;99.90
49503;DHT22;35409;48.776;9.204;2024-03-23T05:45:34;9.30;99.90
49503;DHT22;35409;48.776;9.204;2024-03-23T05:48:00;9.20;99.90
49503;DHT22;35409;48.776;9.204;2024-03-23T05:50:25;9.10;99.90
49503;DHT22;35409;48.776;9.204;2024-03-23T05:52:51;9.20;99.90
49503;DHT22;35409;48.776;9.204;2024-03-23T05:55:17;9.20;99.90
49503;DHT22;35409;48.776;9.204;2024-03-23T05:57:43;9.20;99.90
49503;DHT22;35409;48.776;9.204;2024-03-23T06:00:08;9.10;99.90
49503;DHT22;35409;48.776;9.204;2024-03-23T06:02:43;9.10;99.90
49503;DHT22;35409;48.776;9.204;2024-03-23T06:05:12;9.00;99.90
49503;DHT22;35409;48.776;9.204;2024-03-23T06:07:37;9.00;99.90
49503;DHT22;35409;48.776;9.204;2024-03-23T06:10:04;8.80;99.90
49503;DHT22;35409;48.776;9.204;2024-03-23T06:12:31;8.70;99.90
49503;DHT22;35409;48.776;9.204;2024-03-23T06:14:56;8.70;99.90
49503;DHT22;35409;48.776;9.204;2024-03-23T06:17:22;8.70;99.90
49503;DHT22;35409;48.776;9.204;2024-03-23T06:19:47;8.60;99.90
49503;DHT22;35409;48.776;9.204;2024-03-23T06:22:14;8.70;99.90
49503;DHT22;35409;48.776;9.204;2024-03-23T06:24:40;8.60;99.90
49503;DHT22;35409;48.776;9.204;2024-03-23T06:27:05;8.70;99.90
49503;DHT22;35409;48.776;9.204;2024-03-23T06:29:31;8.70;99.90
49503;DHT22;35409;48.776;9.204;2024-03-23T06:31:57;8.60;99.90
49503;DHT22;35409;48.776;9.204;2024-03-23T06:34:23;8.50;99.90
49503;DHT22;35409;48.776;9.204;2024-03-23T11:03:54;8.10;99.90
49503;DHT22;35409;48.776;9.204;2024-03-23T11:06:48;7.20;99.90
49503;DHT22;35409;48.776;9.204;2024-03-23T11:12:28;6.70;99.90
49503;DHT22;35409;48.776;9.204;2024-03-23T11:15:11;6.30;99.90
49503;DHT22;35409;48.776;9.204;2024-03-23T11:17:37;6.20;99.90
49503;DHT22;35409;48.776;9.204;2024-03-23T11:20:06;6.10;99.90
49503;DHT22;35409;48.776;9.204;2024-03-23T11:25:22;6.50;99.90
49503;DHT22;35409;48.776;9.204;2024-03-23T11:27:53;6.60;99.90
49503;DHT22;35409;48.776;9.204;2024-03-23T11:30:23;6.60;99.90
49503;DHT22;35409;48.776;9.204;2024-03-23T11:32:56;6.60;99.90
49503;DHT22;35409;48.776;9.204;2024-03-23T11:35:30;6.70;99.90
49503;DHT22;35409;48.776;9.204;2024-03-23T11:38:10;6.90;99.90
49503;DHT22;35409;48.776;9.204;2024-03-23T11:40:50;7.20;99.90
49503;DHT22;35409;48.776;9.204;2024-03-23T11:43:17;7.50;99.90
49503;DHT22;35409;48.776;9.204;2024-03-23T11:45:45;7.70;99.90
49503;DHT22;35409;48.776;9.204;2024-03-23T11:48:15;8.00;99.90
49503;DHT22;35409;48.776;9.204;2024-03-23T11:50:44;8.50;99.90
49503;DHT22;35409;48.776;9.204;2024-03-23T11:53:15;9.40;99.90
49503;DHT22;35409;48.776;9.204;2024-03-23T11:55:45;9.90;99.90
49503;DHT22;35409;48.776;9.204;2024-03-23T11:58:11;10.30;99.90
49503;DHT22;35409;48.776;9.204;2024-03-23T12:00:37;10.40;99.90
49503;DHT22;35409;48.776;9.204;2024-03-23T12:03:03;10.50;99.90
49503;DHT22;35409;48.776;9.204;2024-03-23T12:05:30;10.50;99.90
49503;DHT22;35409;48.776;9.204;2024-03-23T12:08:15;10.40;99.90
49503;DHT22;35409;48.776;9.204;2024-03-23T12:10:44;10.10;99.90
49503;DHT22;35409;48.776;9.204;2024-03-23T12:13:09;10.00;99.90
49503;DHT22;35409;48.776;9.204;2024-03-23T12:15:36;9.90;99.90
49503;DHT22;35409;48.776;9.204;2024-03-23T12:18:09;9.80;99.90
49503;DHT22;35409;48.776;9.204;2024-03-23T12:20:34;9.80;99.90
49503;DHT22;35409;48.776;9.204;2024-03-23T12:23:12;9.80;99.90
49503;DHT22;35409;48.776;9.204;2024-03-23T12:25:39;9.80;99.90
49503;DHT22;35409;48.776;9.204;2024-03-23T12:28:05;10.00;99.90
49503;DHT22;35409;48.776;9.204;2024-03-23T12:30:36;10.00;99.90
49503;DHT22;35409;48.776;9.204;2024-03-23T12:33:04;10.10;99.90
49503;DHT22;35409;48.776;9.204;2024-03-23T12:35:30;10.20;99.90
49503;DHT22;35409;48.776;9.204;2024-03-23T12:37:55;10.50;99.90
49503;DHT22;35409;48.776;9.204;2024-03-23T12:42:47;12.30;99.90
49503;DHT22;35409;48.776;9.204;2024-03-23T12:45:13;12.70;99.90
49503;DHT22;35409;48.776;9.204;2024-03-23T12:47:38;13.00;98.20
49503;DHT22;35409;48.776;9.204;2024-03-23T12:50:04;12.60;98.50
49503;DHT22;35409;48.776;9.204;2024-03-23T12:52:31;12.00;98.20
49503;DHT22;35409;48.776;9.204;2024-03-23T12:54:57;11.50;99.50
49503;DHT22;35409;48.776;9.204;2024-03-23T12:57:24;11.10;99.90
49503;DHT22;35409;48.776;9.204;2024-03-23T12:59:53;10.70;99.90
49503;DHT22;35409;48.776;9.204;2024-03-23T13:02:19;10.50;99.90
49503;DHT22;35409;48.776;9.204;2024-03-23T13:04:49;10.40;99.90
49503;DHT22;35409;48.776;9.204;2024-03-23T13:07:15;10.70;99.90
49503;DHT22;35409;48.776;9.204;2024-03-23T13:09:41;11.50;99.90
49503;DHT22;35409;48.776;9.204;2024-03-23T13:12:07;12.40;99.10
49503;DHT22;35409;48.776;9.204;2024-03-23T13:14:33;12.90;99.20
49503;DHT22;35409;48.776;9.204;2024-03-23T13:16:59;13.10;97.80
49503;DHT22;35409;48.776;9.204;2024-03-23T13:19:25;12.90;97.70
49503;DHT22;35409;48.776;9.204;2024-03-23T13:21:54;13.10;97.30
49503;DHT22;35409;48.776;9.204;2024-03-23T13:24:27;13.30;97.20
49503;DHT22;35409;48.776;9.204;2024-03-23T13:26:54;13.60;96.80
49503;DHT22;35409;48.776;9.204;2024-03-23T13:29:20;13.40;97.10
49503;DHT22;35409;48.776;9.204;2024-03-23T13:31:46;13.00;97.10
49503;DHT22;35409;48.776;9.204;2024-03-23T13:34:12;12.80;97.60
49503;DHT22;35409;48.776;9.204;2024-03-23T13:36:44;12.50;96.10
49503;DHT22;35409;48.776;9.204;2024-03-23T13:39:11;12.30;96.30
49503;DHT22;35409;48.776;9.204;2024-03-23T13:41:45;12.10;95.10
49503;DHT22;35409;48.776;9.204;2024-03-23T13:44:13;11.80;95.50
49503;DHT22;35409;48.776;9.204;2024-03-23T13:46:41;11.90;96.00
49503;DHT22;35409;48.776;9.204;2024-03-23T13:49:28;12.50;95.50
49503;DHT22;35409;48.776;9.204;2024-03-23T13:51:55;13.20;93.90
49503;DHT22;35409;48.776;9.204;2024-03-23T13:54:21;13.70;91.80
49503;DHT22;35409;48.776;9.204;2024-03-23T13:56:51;14.20;91.20
49503;DHT22;35409;48.776;9.204;2024-03-23T13:59:17;14.60;90.00
49503;DHT22;35409;48.776;9.204;2024-03-23T14:01:43;14.90;88.50
49503;DHT22;35409;48.776;9.204;2024-03-23T14:04:11;14.90;88.30
49503;DHT22;35409;48.776;9.204;2024-03-23T14:06:36;14.60;87.90
49503;DHT22;35409;48.776;9.204;2024-03-23T14:09:02;14.00;89.20
49503;DHT22;35409;48.776;9.204;2024-03-23T14:11:29;13.00;89.80
49503;DHT22;35409;48.776;9.204;2024-03-23T14:13:55;11.40;95.40
49503;DHT22;35409;48.776;9.204;2024-03-23T14:18:47;8.50;99.90
49503;DHT22;35409;48.776;9.204;2024-03-23T14:21:13;8.00;99.90
49503;DHT22;35409;48.776;9.204;2024-03-23T14:23:38;7.10;99.90
49503;DHT22;35409;48.776;9.204;2024-03-23T14:28:32;6.00;99.90
49503;DHT22;35409;48.776;9.204;2024-03-23T14:30:58;5.90;99.90
49503;DHT22;35409;48.776;9.204;2024-03-23T14:33:24;5.80;99.90
49503;DHT22;35409;48.776;9.204;2024-03-23T14:35:55;6.20;99.90
49503;DHT22;35409;48.776;9.204;2024-03-23T14:38:22;6.60;99.90
49503;DHT22;35409;48.776;9.204;2024-03-23T14:40:48;7.20;99.90
49503;DHT22;35409;48.776;9.204;2024-03-23T14:43:14;7.70;99.90
49503;DHT22;35409;48.776;9.204;2024-03-23T14:46:06;8.00;99.90
49503;DHT22;35409;48.776;9.204;2024-03-23T14:48:33;8.60;99.90
49503;DHT22;35409;48.776;9.204;2024-03-23T14:50:59;9.10;99.90
49503;DHT22;35409;48.776;9.204;2024-03-23T14:53:26;9.30;99.90
49503;DHT22;35409;48.776;9.204;2024-03-23T14:55:55;9.50;99.90
49503;DHT22;35409;48.776;9.204;2024-03-23T14:58:21;9.40;99.90
49503;DHT22;35409;48.776;9.204;2024-03-23T15:00:48;9.20;99.90
49503;DHT22;35409;48.776;9.204;2024-03-23T15:03:14;8.80;99.90
49503;DHT22;35409;48.776;9.204;2024-03-23T15:05:39;8.40;99.90
49503;DHT22;35409;48.776;9.204;2024-03-23T15:08:05;8.00;99.90
49503;DHT22;35409;48.776;9.204;2024-03-23T15:10:33;7.80;99.90
49503;DHT22;35409;48.776;9.204;2024-03-23T15:12:59;7.80;99.90
49503;DHT22;35409;48.776;9.204;2024-03-23T15:15:26;8.20;99.90
49503;DHT22;35409;48.776;9.204;2024-03-23T15:17:51;8.50;99.90
49503;DHT22;35409;48.776;9.204;2024-03-23T15:20:17;9.00;99.90
49503;DHT22;35409;48.776;9.204;2024-03-23T15:22:43;9.30;99.90
49503;DHT22;35409;48.776;9.204;2024-03-23T15:25:08;9.80;99.90
49503;DHT22;35409;48.776;9.204;2024-03-23T15:27:34;10.30;99.90
49503;DHT22;35409;48.776;9.204;2024-03-23T15:30:00;10.40;99.90
49503;DHT22;35409;48.776;9.204;2024-03-23T15:32:26;10.50;99.90
49503;DHT22;35409;48.776;9.204;2024-03-23T15:34:53;10.70;99.90
49503;DHT22;35409;48.776;9.204;2024-03-23T15:37:18;10.80;99.90
49503;DHT22;35409;48.776;9.204;2024-03-23T15:39:44;10.90;99.90
49503;DHT22;35409;48.776;9.204;2024-03-23T15:42:09;11.00;99.90
49503;DHT22;35409;48.776;9.204;2024-03-23T15:44:36;10.90;99.90
49503;DHT22;35409;48.776;9.204;2024-03-23T15:47:01;10.90;99.90
49503;DHT22;35409;48.776;9.204;2024-03-23T15:49:27;10.90;99.90
49503;DHT22;35409;48.776;9.204;2024-03-23T15:51:53;10.90;99.90
49503;DHT22;35409;48.776;9.204;2024-03-23T15:54:19;11.10;99.90
49503;DHT22;35409;48.776;9.204;2024-03-23T15:56:44;11.30;99.90
49503;DHT22;35409;48.776;9.204;2024-03-23T15:59:10;11.40;99.90
49503;DHT22;35409;48.776;9.204;2024-03-23T16:01:35;11.40;99.90
49503;DHT22;35409;48.776;9.204;2024-03-23T16:04:01;11.20;99.90
49503;DHT22;35409;48.776;9.204;2024-03-23T16:06:27;11.00;99.90
49503;DHT22;35409;48.776;9.204;2024-03-23T16:08:53;10.90;99.90
49503;DHT22;35409;48.776;9.204;2024-03-23T16:11:19;11.00;99.90
49503;DHT22;35409;48.776;9.204;2024-03-23T16:13:45;11.20;99.90
49503;DHT22;35409;48.776;9.204;2024-03-23T16:16:12;11.50;99.90
49503;DHT22;35409;48.776;9.204;2024-03-23T16:18:38;11.40;99.90
49503;DHT22;35409;48.776;9.204;2024-03-23T16:21:06;11.10;99.90
49503;DHT22;35409;48.776;9.204;2024-03-23T16:23:33;10.60;99.90
49503;DHT22;35409;48.776;9.204;2024-03-23T16:25:59;10.10;99.90
49503;DHT22;35409;48.776;9.204;2024-03-23T16:28:28;9.50;99.90
49503;DHT22;35409;48.776;9.204;2024-03-23T16:30:57;9.00;99.90
49503;DHT22;35409;48.776;9.204;2024-03-23T16:33:23;8.60;99.90
49503;DHT22;35409;48.776;9.204;2024-03-23T16:36:05;8.20;99.90
49503;DHT22;35409;48.776;9.204;2024-03-23T16:38:33;8.00;99.90
49503;DHT22;35409;48.776;9.204;2024-03-23T16:41:02;7.80;99.90
49503;DHT22;35409;48.776;9.204;2024-03-23T16:43:28;7.70;99.90
49503;DHT22;35409;48.776;9.204;2024-03-23T16:45:59;7.50;99.90
49503;DHT22;35409;48.776;9.204;2024-03-23T16:48:27;7.50;99.90
49503;DHT22;35409;48.776;9.204;2024-03-23T16:50:53;7.40;99.90
49503;DHT22;35409;48.776;9.204;2024-03-23T16:53:19;7.40;99.90
49503;DHT22;35409;48.776;9.204;2024-03-23T16:55:45;7.10;99.90
49503;DHT22;35409;48.776;9.204;2024-03-23T16:58:10;6.80;99.90
49503;DHT22;35409;48.776;9.204;2024-03-23T17:00:36;6.50;99.90
49503;DHT22;35409;48.776;9.204;2024-03-23T17:03:05;6.20;99.90
49503;DHT22;35409;48.776;9.204;2024-03-23T17:05:38;5.90;99.90
49503;DHT22;35409;48.776;9.204;2024-03-23T17:08:04;5.70;99.90
49503;DHT22;35409;48.776;9.204;2024-03-23T17:10:30;5.60;99.90
49503;DHT22;35409;48.776;9.204;2024-03-23T17:12:55;5.50;99.90
49503;DHT22;35409;48.776;9.204;2024-03-23T17:15:21;5.50;99.90
49503;DHT22;35409;48.776;9.204;2024-03-23T17:17:48;5.50;99.90
49503;DHT22;35409;48.776;9.204;2024-03-23T17:20:14;5.40;99.90
49503;DHT22;35409;48.776;9.204;2024-03-23T17:22:39;5.40;99.90
49503;DHT22;35409;48.776;9.204;2024-03-23T17:25:06;5.40;99.90
49503;DHT22;35409;48.776;9.204;2024-03-23T17:27:31;5.40;99.90
49503;DHT22;35409;48.776;9.204;2024-03-23T17:29:57;5.40;99.90
49503;DHT22;35409;48.776;9.204;2024-03-23T17:32:22;5.40;99.90
49503;DHT22;35409;48.776;9.204;2024-03-23T17:34:48;5.50;99.90
49503;DHT22;35409;48.776;9.204;2024-03-23T17:37:14;5.50;99.90
49503;DHT22;35409;48.776;9.204;2024-03-23T17:39:39;5.60;99.90
49503;DHT22;35409;48.776;9.204;2024-03-23T17:42:06;5.60;99.90
49503;DHT22;35409;48.776;9.204;2024-03-23T17:44:31;5.50;99.90
49503;DHT22;35409;48.776;9.204;2024-03-23T17:46:57;5.10;99.90
49503;DHT22;35409;48.776;9.204;2024-03-23T17:49:23;4.80;99.90
49503;DHT22;35409;48.776;9.204;2024-03-23T17:51:49;4.60;99.90
49503;DHT22;35409;48.776;9.204;2024-03-23T17:54:15;4.30;99.90
49503;DHT22;35409;48.776;9.204;2024-03-23T17:56:42;4.00;99.90
49503;DHT22;35409;48.776;9.204;2024-03-23T17:59:07;3.90;99.90
49503;DHT22;35409;48.776;9.204;2024-03-23T18:01:33;3.70;99.90
49503;DHT22;35409;48.776;9.204;2024-03-23T18:03:59;3.50;99.90
49503;DHT22;35409;48.776;9.204;2024-03-23T18:13:43;3.20;99.90
49503;DHT22;35409;48.776;9.204;2024-03-23T18:16:09;3.10;99.90
49503;DHT22;35409;48.776;9.204;2024-03-23T18:18:34;3.00;99.90
49503;DHT22;35409;48.776;9.204;2024-03-23T18:21:01;3.00;99.90
49503;DHT22;35409;48.776;9.204;2024-03-23T18:23:27;2.90;99.90
49503;DHT22;35409;48.776;9.204;2024-03-23T18:25:56;2.90;99.90
49503;DHT22;35409;48.776;9.204;2024-03-23T18:28:22;2.90;99.90
49503;DHT22;35409;48.776;9.204;2024-03-23T18:31:08;2.80;99.90
49503;DHT22;35409;48.776;9.204;2024-03-23T18:33:39;2.80;99.90
49503;DHT22;35409;48.776;9.204;2024-03-23T18:36:05;2.70;99.90
49503;DHT22;35409;48.776;9.204;2024-03-23T18:38:31;2.80;99.90
49503;DHT22;35409;48.776;9.204;2024-03-23T18:40:57;2.70;99.90
49503;DHT22;35409;48.776;9.204;2024-03-23T18:43:22;2.70;99.90
49503;DHT22;35409;48.776;9.204;2024-03-23T18:45:51;2.70;99.90
49503;DHT22;35409;48.776;9.204;2024-03-23T18:48:17;2.80;99.90
49503;DHT22;35409;48.776;9.204;2024-03-23T18:50:43;2.80;99.90
49503;DHT22;35409;48.776;9.204;2024-03-23T18:53:09;2.80;99.90
49503;DHT22;35409;48.776;9.204;2024-03-23T18:55:39;2.70;99.90
49503;DHT22;35409;48.776;9.204;2024-03-23T18:58:05;2.70;99.90
49503;DHT22;35409;48.776;9.204;2024-03-23T19:00:31;2.80;99.90
49503;DHT22;35409;48.776;9.204;2024-03-23T19:02:58;2.70;99.90
49503;DHT22;35409;48.776;9.204;2024-03-23T19:05:24;2.70;99.90
49503;DHT22;35409;48.776;9.204;2024-03-23T19:07:50;2.70;99.90
49503;DHT22;35409;48.776;9.204;2024-03-23T19:10:16;2.80;99.90
49503;DHT22;35409;48.776;9.204;2024-03-23T19:12:41;2.80;99.90
49503;DHT22;35409;48.776;9.204;2024-03-23T19:15:08;2.80;99.90
49503;DHT22;35409;48.776;9.204;2024-03-23T19:17:34;2.70;99.90
49503;DHT22;35409;48.776;9.204;2024-03-23T19:20:00;2.80;99.90
49503;DHT22;35409;48.776;9.204;2024-03-23T19:22:26;2.80;99.90
49503;DHT22;35409;48.776;9.204;2024-03-23T19:24:52;2.80;99.90
49503;DHT22;35409;48.776;9.204;2024-03-23T19:27:18;2.80;99.90
49503;DHT22;35409;48.776;9.204;2024-03-23T19:29:43;2.80;99.90
49503;DHT22;35409;48.776;9.204;2024-03-23T19:32:09;2.70;99.90
49503;DHT22;35409;48.776;9.204;2024-03-23T19:34:34;2.70;99.90
49503;DHT22;35409;48.776;9.204;2024-03-23T19:37:00;2.60;99.90
49503;DHT22;35409;48.776;9.204;2024-03-23T19:39:26;2.60;99.90
49503;DHT22;35409;48.776;9.204;2024-03-23T19:41:51;2.60;99.90
49503;DHT22;35409;48.776;9.204;2024-03-23T19:44:17;2.50;99.90
49503;DHT22;35409;48.776;9.204;2024-03-23T19:46:43;2.50;99.90
49503;DHT22;35409;48.776;9.204;2024-03-23T19:49:09;2.40;99.90
49503;DHT22;35409;48.776;9.204;2024-03-23T19:51:34;2.40;99.90
49503;DHT22;35409;48.776;9.204;2024-03-23T19:54:00;2.40;99.90
49503;DHT22;35409;48.776;9.204;2024-03-23T19:56:26;2.40;99.90
49503;DHT22;35409;48.776;9.204;2024-03-23T19:58:51;2.40;99.90
49503;DHT22;35409;48.776;9.204;2024-03-23T20:01:18;2.40;99.90
49503;DHT22;35409;48.776;9.204;2024-03-23T20:03:47;2.40;99.90
49503;DHT22;35409;48.776;9.204;2024-03-23T20:06:16;2.40;99.90
49503;DHT22;35409;48.776;9.204;2024-03-23T20:08:42;2.40;99.90
49503;DHT22;35409;48.776;9.204;2024-03-23T20:11:08;2.40;99.90
49503;DHT22;35409;48.776;9.204;2024-03-23T20:13:34;2.40;99.90
49503;DHT22;35409;48.776;9.204;2024-03-23T20:16:00;2.40;99.90
49503;DHT22;35409;48.776;9.204;2024-03-23T20:18:29;2.50;99.90
49503;DHT22;35409;48.776;9.204;2024-03-23T20:21:04;2.50;99.90
49503;DHT22;35409;48.776;9.204;2024-03-23T20:23:30;2.70;99.90
49503;DHT22;35409;48.776;9.204;2024-03-23T20:25:57;2.70;99.90
49503;DHT22;35409;48.776;9.204;2024-03-23T20:28:24;2.70;99.90
49503;DHT22;35409;48.776;9.204;2024-03-23T20:30:57;2.60;99.90
49503;DHT22;35409;48.776;9.204;2024-03-23T20:33:24;2.70;99.90
49503;DHT22;35409;48.776;9.204;2024-03-23T20:35:50;2.70;99.90
49503;DHT22;35409;48.776;9.204;2024-03-23T20:38:16;2.70;99.90
49503;DHT22;35409;48.776;9.204;2024-03-23T20:40:42;2.80;99.90
49503;DHT22;35409;48.776;9.204;2024-03-23T20:43:08;2.80;99.90
49503;DHT22;35409;48.776;9.204;2024-03-23T20:45:38;2.80;99.90
49503;DHT22;35409;48.776;9.204;2024-03-23T20:48:05;2.90;99.90
49503;DHT22;35409;48.776;9.204;2024-03-23T20:50:31;2.90;99.90
49503;DHT22;35409;48.776;9.204;2024-03-23T20:52:56;3.00;99.90
49503;DHT22;35409;48.776;9.204;2024-03-23T20:55:24;3.00;99.90
49503;DHT22;35409;48.776;9.204;2024-03-23T20:57:50;3.00;99.90
49503;DHT22;35409;48.776;9.204;2024-03-23T21:00:18;3.00;99.90
49503;DHT22;35409;48.776;9.204;2024-03-23T21:02:44;3.00;99.90
49503;DHT22;35409;48.776;9.204;2024-03-23T21:05:09;3.00;99.90
49503;DHT22;35409;48.776;9.204;2024-03-23T21:07:35;2.90;99.90
49503;DHT22;35409;48.776;9.204;2024-03-23T21:10:01;2.90;99.90
49503;DHT22;35409;48.776;9.204;2024-03-23T21:12:27;3.00;99.90
49503;DHT22;35409;48.776;9.204;2024-03-23T21:14:53;2.90;99.90
49503;DHT22;35409;48.776;9.204;2024-03-23T21:17:18;2.90;99.90